createdAt,value
2018-11-25T00:01:03.156Z,37.20
2018-11-25T00:06:06.719Z,35.53
2018-11-25T00:11:10.425Z,35.40
2018-11-25T00:16:14.042Z,33.10
2018-11-25T00:21:19.722Z,32.70
2018-11-25T00:26:23.970Z,34.63
2018-11-25T00:31:27.860Z,35.50
2018-11-25T00:36:31.493Z,28.93
2018-11-25T00:41:35.105Z,37.10
2018-11-25T00:46:38.717Z,37.13
2018-11-25T00:51:42.376Z,47.13
2018-11-25T00:56:45.961Z,42.77
2018-11-25T01:01:49.550Z,39.33
2018-11-25T01:06:53.268Z,34.40
2018-11-25T01:11:56.809Z,37.17
2018-11-25T01:17:00.433Z,31.87
2018-11-25T01:22:04.054Z,29.90
2018-11-25T01:27:07.603Z,24.83
2018-11-25T01:32:11.193Z,22.67
2018-11-25T01:37:15.053Z,32.10
2018-11-25T01:42:18.621Z,31.67
2018-11-25T01:47:22.247Z,28.73
2018-11-25T01:52:25.810Z,30.03
2018-11-25T01:57:29.361Z,30.87
2018-11-25T02:02:33.436Z,28.77
2018-11-25T02:07:37.037Z,33.13
2018-11-25T02:12:41.463Z,30.60
2018-11-25T02:17:45.061Z,30.80
2018-11-25T02:22:49.800Z,33.40
2018-11-25T02:27:53.407Z,27.83
2018-11-25T02:32:56.963Z,29.97
2018-11-25T02:38:00.569Z,30.77
2018-11-25T02:48:32.786Z,33.93
2018-11-25T02:53:36.348Z,27.97
2018-11-25T02:58:40.008Z,29.33
2018-11-25T03:03:43.585Z,25.27
2018-11-25T03:08:47.272Z,24.40
2018-11-25T03:13:51.252Z,22.10
2018-11-25T03:18:55.310Z,21.07
2018-11-25T03:23:58.880Z,27.67
2018-11-25T03:29:02.727Z,27.87
2018-11-25T03:34:06.902Z,28.90
2018-11-25T03:39:10.450Z,31.90
2018-11-25T03:44:14.012Z,26.27
2018-11-25T03:49:18.449Z,33.37
2018-11-25T03:54:21.999Z,26.20
2018-11-25T03:59:26.243Z,28.83
2018-11-25T04:04:30.336Z,31.33
2018-11-25T04:09:33.892Z,30.50
2018-11-25T04:14:37.496Z,26.90
2018-11-25T04:19:41.902Z,31.03
2018-11-25T04:24:45.465Z,26.47
2018-11-25T04:29:49.793Z,25.90
2018-11-25T04:34:53.685Z,27.73
2018-11-25T04:39:57.292Z,28.77
2018-11-25T04:45:02.483Z,25.87
2018-11-25T04:50:10.256Z,25.73
2018-11-25T04:55:13.973Z,26.70
2018-11-25T05:00:17.577Z,29.20
2018-11-25T05:05:21.126Z,31.00
2018-11-25T05:10:24.795Z,29.60
2018-11-25T05:15:28.640Z,30.63
2018-11-25T05:20:32.452Z,26.30
2018-11-25T05:25:36.202Z,29.40
2018-11-25T05:30:40.073Z,28.97
2018-11-25T05:35:43.902Z,28.10
2018-11-25T05:40:47.461Z,27.20
2018-11-25T05:45:51.077Z,30.50
2018-11-25T05:50:58.347Z,35.67
2018-11-25T05:56:01.913Z,33.60
2018-11-25T06:01:05.578Z,32.90
2018-11-25T06:06:09.120Z,33.10
2018-11-25T06:11:13.197Z,32.97
2018-11-25T06:16:16.764Z,33.53
2018-11-25T06:21:20.355Z,33.70
2018-11-25T06:26:23.980Z,35.13
2018-11-25T06:31:28.674Z,29.57
2018-11-25T06:36:32.248Z,35.57
2018-11-25T06:41:36.533Z,34.00
2018-11-25T06:46:41.372Z,29.03
2018-11-25T06:51:45.512Z,30.23
2018-11-25T06:56:49.233Z,31.83
2018-11-25T07:01:52.808Z,29.47
2018-11-25T07:06:57.043Z,32.80
2018-11-25T07:12:00.673Z,29.80
2018-11-25T07:17:04.281Z,31.03
2018-11-25T07:22:07.845Z,33.73
2018-11-25T07:27:11.430Z,32.70
2018-11-25T07:32:15.071Z,32.03
2018-11-25T07:37:18.664Z,30.50
2018-11-25T07:42:22.546Z,34.47
2018-11-25T07:47:26.213Z,33.00
2018-11-25T07:52:29.795Z,35.63
2018-11-25T07:57:33.429Z,35.80
2018-11-25T08:02:41.612Z,32.93
2018-11-25T08:07:40.657Z,32.70
2018-11-25T08:12:45.012Z,31.00
2018-11-25T08:17:48.673Z,30.00
2018-11-25T08:22:52.274Z,30.20
2018-11-25T08:27:58.066Z,27.17
2018-11-25T08:33:01.616Z,29.70
2018-11-25T08:38:05.244Z,29.83
2018-11-25T08:43:08.857Z,28.40
2018-11-25T08:48:12.838Z,26.30
2018-11-25T08:53:16.406Z,25.87
2018-11-25T08:58:20.050Z,28.30
2018-11-25T09:03:23.594Z,25.23
2018-11-25T09:08:27.184Z,29.20
2018-11-25T09:13:30.989Z,25.80
2018-11-25T09:18:34.583Z,23.20
2018-11-25T09:23:48.561Z,27.87
2018-11-25T09:28:52.360Z,25.10
2018-11-25T09:33:56.780Z,27.43
2018-11-25T09:38:59.437Z,29.93
2018-11-25T09:44:03.236Z,24.00
2018-11-25T09:49:06.924Z,23.67
2018-11-25T09:54:10.512Z,25.87
2018-11-25T09:59:14.171Z,23.70
2018-11-25T10:04:18.012Z,24.30
2018-11-25T10:09:21.788Z,22.97
2018-11-25T10:14:25.946Z,23.27
2018-11-25T10:19:29.757Z,21.23
2018-11-25T10:24:33.336Z,21.23
2018-11-25T10:29:37.013Z,19.20
2018-11-25T10:34:40.998Z,21.33
2018-11-25T10:39:44.641Z,19.77
2018-11-25T10:44:48.324Z,21.40
2018-11-25T10:49:52.796Z,19.03
2018-11-25T10:54:56.467Z,19.37
2018-11-25T11:00:00.183Z,15.40
2018-11-25T11:05:05.456Z,15.23
2018-11-25T11:10:10.304Z,16.80
2018-11-25T11:15:13.922Z,14.80
2018-11-25T11:20:17.766Z,14.77
2018-11-25T11:25:21.393Z,14.43
2018-11-25T11:30:25.147Z,12.40
2018-11-25T11:35:29.112Z,13.70
2018-11-25T11:40:32.818Z,13.60
2018-11-25T11:45:37.286Z,16.00
2018-11-25T11:50:40.905Z,14.40
2018-11-25T11:55:45.772Z,15.93
2018-11-25T12:00:49.612Z,17.03
2018-11-25T12:06:06.944Z,15.53
2018-11-25T12:11:10.498Z,17.63
2018-11-25T12:16:14.279Z,18.83
2018-11-25T12:21:18.073Z,17.07
2018-11-25T12:26:21.667Z,18.13
2018-11-25T12:31:25.249Z,19.17
2018-11-25T12:36:28.936Z,16.93
2018-11-25T12:41:32.559Z,18.97
2018-11-25T12:46:36.176Z,19.67
2018-11-25T12:51:41.293Z,17.10
2018-11-25T12:56:51.700Z,17.83
2018-11-25T13:01:48.932Z,17.67
2018-11-25T13:06:52.548Z,17.43
2018-11-25T13:11:56.109Z,21.57
2018-11-25T13:16:59.758Z,17.33
2018-11-25T13:22:03.406Z,17.80
2018-11-25T13:27:07.003Z,18.13
2018-11-25T13:32:10.635Z,20.33
2018-11-25T13:37:14.516Z,17.53
2018-11-25T13:42:18.123Z,17.80
2018-11-25T13:47:21.801Z,19.10
2018-11-25T13:52:25.366Z,17.77
2018-11-25T13:57:28.942Z,17.23
2018-11-25T14:02:32.536Z,28.83
2018-11-25T14:07:36.408Z,10.13
2018-11-25T14:12:39.988Z,11.70
2018-11-25T14:17:43.669Z,11.70
2018-11-25T14:22:53.290Z,10.80
2018-11-25T14:27:59.073Z,12.57
2018-11-25T14:33:02.656Z,8.00
2018-11-25T14:38:06.960Z,10.10
2018-11-25T14:43:10.885Z,7.83
2018-11-25T14:48:14.758Z,10.03
2018-11-25T14:53:18.559Z,10.43
2018-11-25T14:58:22.142Z,11.53
2018-11-25T15:03:25.757Z,13.13
2018-11-25T15:08:29.548Z,18.53
2018-11-25T15:13:33.128Z,10.00
2018-11-25T15:18:37.084Z,9.07
2018-11-25T15:23:40.780Z,11.20
2018-11-25T15:28:44.689Z,11.27
2018-11-25T15:33:48.611Z,10.70
2018-11-25T15:38:52.306Z,11.80
2018-11-25T15:43:56.020Z,10.00
2018-11-25T15:49:00.031Z,10.73
2018-11-25T15:54:03.963Z,11.37
2018-11-25T15:59:07.956Z,13.13
2018-11-25T16:04:11.926Z,12.90
2018-11-25T16:09:15.686Z,16.47
2018-11-25T16:14:19.496Z,14.07
2018-11-25T16:19:23.496Z,15.03
2018-11-25T16:24:27.205Z,14.50
2018-11-25T16:29:30.972Z,13.90
2018-11-25T16:34:34.842Z,13.17
2018-11-25T16:39:38.812Z,12.20
2018-11-25T16:44:46.522Z,14.40
2018-11-25T16:49:50.543Z,13.47
2018-11-25T16:54:54.170Z,13.80
2018-11-25T17:00:01.397Z,12.67
2018-11-25T17:05:18.242Z,19.07
2018-11-25T17:10:21.881Z,13.67
2018-11-25T17:15:27.297Z,13.03
2018-11-25T17:20:30.972Z,15.93
2018-11-25T17:25:34.624Z,12.17
2018-11-25T17:30:38.337Z,13.87
2018-11-25T17:35:42.089Z,13.03
2018-11-25T17:40:45.733Z,13.57
2018-11-25T17:45:49.853Z,14.43
2018-11-25T17:50:53.537Z,12.70
2018-11-25T17:55:57.172Z,13.70
2018-11-25T18:01:04.823Z,13.83
2018-11-25T18:06:08.459Z,15.07
2018-11-25T18:11:12.065Z,12.93
2018-11-25T18:16:15.698Z,13.97
2018-11-25T18:21:23.213Z,13.57
2018-11-25T18:26:27.076Z,11.73
2018-11-25T18:31:30.665Z,11.77
2018-11-25T18:36:34.259Z,14.23
2018-11-25T18:41:37.943Z,13.90
2018-11-25T18:46:46.572Z,11.90
2018-11-25T18:51:45.434Z,13.30
2018-11-25T18:56:49.284Z,13.90
2018-11-25T19:01:57.891Z,11.77
2018-11-25T19:07:01.501Z,12.80
2018-11-25T19:12:05.461Z,10.60
2018-11-25T19:17:09.050Z,14.70
2018-11-25T19:22:12.636Z,10.97
2018-11-25T19:27:16.762Z,12.70
2018-11-25T19:32:20.531Z,12.60
2018-11-25T19:37:24.354Z,13.63
2018-11-25T19:42:28.094Z,15.20
2018-11-25T19:47:31.952Z,16.60
2018-11-25T19:52:36.643Z,12.80
2018-11-25T19:57:40.828Z,12.57
2018-11-25T20:02:44.694Z,12.10
2018-11-25T20:07:48.742Z,14.37
2018-11-25T20:12:55.677Z,13.40
2018-11-25T20:18:00.333Z,13.60
2018-11-25T20:23:09.252Z,14.00
2018-11-25T20:28:13.423Z,15.27
2018-11-25T20:33:22.652Z,14.07
2018-11-25T20:38:31.775Z,19.93
2018-11-25T20:43:35.456Z,14.30
2018-11-25T20:48:39.345Z,13.53
2018-11-25T20:53:48.255Z,16.30
2018-11-25T20:58:52.606Z,13.70
2018-11-25T21:03:56.203Z,13.60
2018-11-25T21:09:00.426Z,14.10
2018-11-25T21:14:04.027Z,12.77
2018-11-25T21:19:07.577Z,15.53
2018-11-25T21:24:11.201Z,15.27
2018-11-25T21:29:14.776Z,16.00
2018-11-25T21:34:18.478Z,14.43
2018-11-25T21:39:22.112Z,14.00
2018-11-25T21:44:25.697Z,13.23
2018-11-25T21:49:29.801Z,20.53
2018-11-25T21:54:33.366Z,17.90
2018-11-25T21:59:37.210Z,13.63
2018-11-25T22:04:40.824Z,15.73
2018-11-25T22:09:44.560Z,12.90
2018-11-25T22:14:48.139Z,12.90
2018-11-25T22:19:51.973Z,13.53
2018-11-25T22:24:55.582Z,14.17
2018-11-25T22:30:04.101Z,16.00
2018-11-25T22:35:10.551Z,12.03
2018-11-25T22:40:15.307Z,16.40
2018-11-25T22:45:21.408Z,13.63
2018-11-25T22:50:27.640Z,16.77
2018-11-25T22:55:28.677Z,15.67
2018-11-25T23:00:34.873Z,17.00
2018-11-25T23:05:49.685Z,15.43
2018-11-25T23:10:53.592Z,13.40
2018-11-25T23:15:57.429Z,13.93
2018-11-25T23:21:01.541Z,14.50
2018-11-25T23:26:05.379Z,15.77
2018-11-25T23:31:09.677Z,11.93
2018-11-25T23:36:15.643Z,16.43
2018-11-25T23:41:19.466Z,13.80
2018-11-25T23:46:23.071Z,14.40
2018-11-25T23:51:26.910Z,15.33
2018-11-25T23:56:31.328Z,17.87
